• Join FlightAware (Why Join?)
  • Login
  • US Flag 
11:16PM EDT


 

Airport Tracker/Info


-or-


 

Live Flight TrackerFlight Track Log ✈ JAL89 ✈ 05-May-2012 ✈ PHNL - RJTT / HND

Flight Track Log - Related Links

Times and Time Zones

All times are in EDT time to prevent confusion due to time zone crossing. See the JAL89 flight status page for this flight to view local times or setup timezone preferences in your user account.

Time Position Orientation Groundspeed Altitude Reporting Facility
EDT Latitude Longitude Course Direction KTS MPH feet Rate Location/Type
12:33AM 21.6881 -159.1597 125° Southeast  Level FlightAware Approximate
12:34AM 21.4167 -158.7500 293° West 420 483 20,000  Level Honolulu Center
12:39AM 21.6667 -159.3833 292° West 480 552 27,900 1,560 Climbing Honolulu Center
12:40AM 21.7167 -159.5167 292° West 480 552 29,600 1,380 Climbing Honolulu Center
12:41AM 21.7667 -159.6500 295° West 490 564 30,700 1,500 Climbing Honolulu Center
12:42AM 21.8167 -159.7667 292° West 480 552 32,700 1,740 Climbing Honolulu Center
12:43AM 21.8667 -159.9000 292° West 480 552 34,300 1,620 Climbing Honolulu Center
12:44AM 21.9167 -160.0333 292° West 470 541 36,000 840 Climbing Honolulu Center
12:45AM 21.9667 -160.1667 292° West 460 529 36,000  Level Honolulu Center
12:46AM 22.0167 -160.3000 293° West 470 541 36,000  Level Honolulu Center
12:49AM 22.1667 -160.6833 293° West 470 541 36,000  Level Honolulu Center
12:52AM 22.3167 -161.0667 291° West 470 541 36,000  Level Honolulu Center
01:13AM 23.2667 -163.8500 297° West 463 533 36,000  Level Oakland Oceanic (ODAPS)
01:26AM 24.0167 -165.4667 297° West 466 536 36,000  Level Oakland Oceanic (ODAPS)
01:52AM 25.5333 -168.9167 296° West 467 537 36,000  Level Oakland Oceanic (ODAPS)
02:01AM 26.0000 -170.0000 297° West 466 536 36,000  Level Oakland Oceanic (ODAPS)
02:46AM 28.4833 -175.9167 294° West 463 533 37,600  Climbing Oakland Oceanic (ODAPS)
03:12AM 29.8167 -179.4833 292° West 461 531 38,000  Climbing Oakland Oceanic (ODAPS)
03:16AM 30.0000 180.0000 286° West 460 529 38,000  Level Oakland Oceanic (ODAPS)
03:39AM 30.7500 176.7167 284° West 471 542 38,000  Level Oakland Oceanic (ODAPS)
04:06AM 31.5500 172.6500 282° West 464 534 38,000  Level Oakland Oceanic (ODAPS)
04:24AM 32.0000 170.0000 280° West 443 510 38,000  Level Oakland Oceanic (ODAPS)
04:32AM 32.1667 168.7833 278° West 441 507 38,000  Level Oakland Oceanic (ODAPS)
04:33AM 32.1824 168.6523 279° West 443 510 38,000  Level FlightAware Transoceanic
04:34AM 32.2007 168.5107 279° West 443 510 38,000  Level FlightAware Transoceanic
04:35AM 32.2189 168.3690 279° West 443 510 38,000  Level FlightAware Transoceanic
04:36AM 32.2369 168.2272 279° West 443 510 38,000  Level FlightAware Transoceanic
04:40AM 32.3025 167.7082 278° West 441 507 38,000  Level FlightAware Transoceanic
04:41AM 32.3198 167.5653 278° West 441 507 38,000  Level FlightAware Transoceanic
04:42AM 32.3370 167.4223 278° West 441 507 38,000  Level FlightAware Transoceanic
04:43AM 32.3540 167.2792 278° West 441 507 38,000  Level FlightAware Transoceanic
04:44AM 32.3709 167.1361 278° West 441 507 38,000  Level FlightAware Transoceanic
04:45AM 32.3876 166.9929 278° West 441 507 38,000  Level FlightAware Transoceanic
04:46AM 32.4041 166.8497 278° West 441 507 38,000  Level FlightAware Transoceanic
04:47AM 32.4205 166.7064 278° West 441 507 38,000  Level FlightAware Transoceanic
04:48AM 32.4367 166.5631 278° West 441 507 38,000  Level FlightAware Transoceanic
04:49AM 32.4527 166.4197 278° West 441 507 38,000  Level FlightAware Transoceanic
04:50AM 32.4686 166.2763 277° West 441 507 38,000  Level FlightAware Transoceanic
04:51AM 32.4843 166.1328 277° West 441 507 38,000  Level FlightAware Transoceanic
04:52AM 32.4999 165.9893 277° West 441 507 38,000  Level FlightAware Transoceanic
04:53AM 32.5153 165.8457 277° West 441 507 38,000  Level FlightAware Transoceanic
04:54AM 32.5305 165.7021 277° West 441 507 38,000  Level FlightAware Transoceanic
04:55AM 32.5456 165.5584 277° West 441 507 38,000  Level FlightAware Transoceanic
04:56AM 32.5605 165.4147 277° West 441 507 38,000  Level FlightAware Transoceanic
04:57AM 32.5753 165.2709 277° West 441 507 38,000  Level FlightAware Transoceanic
04:58AM 32.5898 165.1271 277° West 441 507 38,000  Level FlightAware Transoceanic
04:59AM 32.6043 164.9832 277° West 441 507 38,000  Level FlightAware Transoceanic
05:00AM 32.6185 164.8393 277° West 441 507 38,000  Level FlightAware Transoceanic
05:01AM 32.6326 164.6954 277° West 441 507 38,000  Level FlightAware Transoceanic
05:02AM 32.6465 164.5514 277° West 441 507 38,000  Level FlightAware Transoceanic
05:03AM 32.6603 164.4073 276° West 441 507 38,000  Level FlightAware Transoceanic
05:04AM 32.6739 164.2632 276° West 441 507 38,000  Level FlightAware Transoceanic
05:05AM 32.6873 164.1191 276° West 441 507 38,000  Level FlightAware Transoceanic
05:06AM 32.7006 163.9749 276° West 441 507 38,000  Level FlightAware Transoceanic
05:07AM 32.7137 163.8307 276° West 441 507 38,000  Level FlightAware Transoceanic
05:08AM 32.7266 163.6864 276° West 441 507 38,000  Level FlightAware Transoceanic
05:09AM 32.7394 163.5421 276° West 441 507 38,000  Level FlightAware Transoceanic
05:10AM 32.7520 163.3978 276° West 441 507 38,000  Level FlightAware Transoceanic
05:11AM 32.7644 163.2534 276° West 441 507 38,000  Level FlightAware Transoceanic
05:12AM 32.7767 163.1090 276° West 441 507 38,000  Level FlightAware Transoceanic
05:13AM 32.7888 162.9645 276° West 441 507 38,000  Level FlightAware Transoceanic
05:14AM 32.8007 162.8200 276° West 441 507 38,000  Level FlightAware Transoceanic
05:15AM 32.8125 162.6755 275° West 441 507 38,000  Level FlightAware Transoceanic
05:16AM 32.8241 162.5309 275° West 441 507 38,000  Level FlightAware Transoceanic
05:17AM 32.8356 162.3863 275° West 441 507 38,000  Level FlightAware Transoceanic
05:18AM 32.8469 162.2416 275° West 441 507 38,000  Level FlightAware Transoceanic
05:19AM 32.8580 162.0969 275° West 441 507 38,000  Level FlightAware Transoceanic
05:20AM 32.8689 161.9522 275° West 441 507 38,000  Level FlightAware Transoceanic
05:21AM 32.8797 161.8075 275° West 441 507 38,000  Level FlightAware Transoceanic
05:22AM 32.8903 161.6627 275° West 441 507 38,000  Level FlightAware Transoceanic
05:23AM 32.9007 161.5178 275° West 441 507 38,000  Level FlightAware Transoceanic
05:24AM 32.9110 161.3730 275° West 441 507 38,000  Level FlightAware Transoceanic
05:25AM 32.9211 161.2281 275° West 441 507 38,000  Level FlightAware Transoceanic
05:26AM 32.9311 161.0831 275° West 441 507 38,000  Level FlightAware Transoceanic
05:27AM 32.9408 160.9382 275° West 441 507 38,000  Level FlightAware Transoceanic
05:28AM 32.9504 160.7932 274° West 441 507 38,000  Level FlightAware Transoceanic
05:29AM 32.9599 160.6481 274° West 441 507 38,000  Level FlightAware Transoceanic
05:30AM 32.9692 160.5031 274° West 441 507 38,000  Level FlightAware Transoceanic
05:31AM 32.9783 160.3580 274° West 441 507 38,000  Level FlightAware Transoceanic
05:32AM 32.9872 160.2129 274° West 441 507 38,000  Level FlightAware Transoceanic
05:33AM 32.9960 160.0677 280° West 441 507 38,000  Level FlightAware Transoceanic
05:34AM 33.0168 159.9315 286° West 441 507 38,000  Level FlightAware Transoceanic
05:35AM 33.0482 159.8031 286° West 441 507 38,000  Level FlightAware Transoceanic
05:36AM 33.0795 159.6746 286° West 441 507 38,000  Level FlightAware Transoceanic
05:37AM 33.1106 159.5460 286° West 441 507 38,000  Level FlightAware Transoceanic
05:38AM 33.1416 159.4173 286° West 441 507 38,000  Level FlightAware Transoceanic
05:39AM 33.1725 159.2885 286° West 441 507 38,000  Level FlightAware Transoceanic
05:40AM 33.2032 159.1596 286° West 441 507 38,000  Level FlightAware Transoceanic
05:41AM 33.2338 159.0306 286° West 441 507 38,000  Level FlightAware Transoceanic
05:42AM 33.2643 158.9015 286° West 441 507 38,000  Level FlightAware Transoceanic
05:43AM 33.2946 158.7724 286° West 441 507 38,000  Level FlightAware Transoceanic
05:44AM 33.3248 158.6431 286° West 441 507 38,000  Level FlightAware Transoceanic
05:45AM 33.3549 158.5138 286° West 441 507 38,000  Level FlightAware Transoceanic
05:46AM 33.3849 158.3844 285° West 441 507 38,000  Level FlightAware Transoceanic
05:47AM 33.4147 158.2548 285° West 441 507 38,000  Level FlightAware Transoceanic
05:48AM 33.4443 158.1252 285° West 441 507 38,000  Level FlightAware Transoceanic
05:49AM 33.4739 157.9955 285° West 441 507 38,000  Level FlightAware Transoceanic
05:50AM 33.5033 157.8658 285° West 441 507 38,000  Level FlightAware Transoceanic
05:51AM 33.5325 157.7359 285° West 441 507 38,000  Level FlightAware Transoceanic
05:52AM 33.5617 157.6059 285° West 441 507 38,000  Level FlightAware Transoceanic
05:53AM 33.5906 157.4759 285° West 441 507 38,000  Level FlightAware Transoceanic
05:54AM 33.6195 157.3458 285° West 441 507 38,000  Level FlightAware Transoceanic
05:55AM 33.6482 157.2155 285° West 441 507 38,000  Level FlightAware Transoceanic
05:56AM 33.6768 157.0852 285° West 441 507 38,000  Level FlightAware Transoceanic
05:57AM 33.7053 156.9548 285° West 441 507 38,000  Level FlightAware Transoceanic
05:58AM 33.7336 156.8244 285° West 441 507 38,000  Level FlightAware Transoceanic
05:59AM 33.7617 156.6938 285° West 441 507 38,000  Level FlightAware Transoceanic
06:00AM 33.7898 156.5632 284° West 441 507 38,000  Level FlightAware Transoceanic
06:01AM 33.8177 156.4324 284° West 441 507 38,000  Level FlightAware Transoceanic
06:02AM 33.8454 156.3016 284° West 441 507 38,000  Level FlightAware Transoceanic
06:03AM 33.8731 156.1707 284° West 441 507 38,000  Level FlightAware Transoceanic
06:04AM 33.9005 156.0397 284° West 441 507 38,000  Level FlightAware Transoceanic
06:05AM 33.9279 155.9086 284° West 441 507 38,000  Level FlightAware Transoceanic
06:06AM 33.9551 155.7775 284° West 441 507 38,000  Level FlightAware Transoceanic
06:07AM 33.9821 155.6462 284° West 441 507 38,000  Level FlightAware Transoceanic
06:08AM 34.0091 155.5149 284° West 441 507 38,000  Level FlightAware Transoceanic
06:09AM 34.0359 155.3835 284° West 441 507 38,000  Level FlightAware Transoceanic
06:10AM 34.0625 155.2520 284° West 441 507 38,000  Level FlightAware Transoceanic
06:11AM 34.0890 155.1205 284° West 441 507 38,000  Level FlightAware Transoceanic
06:12AM 34.1154 154.9888 284° West 441 507 38,000  Level FlightAware Transoceanic
06:13AM 34.1416 154.8571 283° West 441 507 38,000  Level FlightAware Transoceanic
06:14AM 34.1677 154.7252 283° West 441 507 38,000  Level FlightAware Transoceanic
06:15AM 34.1936 154.5933 283° West 441 507 38,000  Level FlightAware Transoceanic
06:16AM 34.2194 154.4614 283° West 441 507 38,000  Level FlightAware Transoceanic
06:17AM 34.2451 154.3293 283° West 441 507 38,000  Level FlightAware Transoceanic
06:18AM 34.2706 154.1971 283° West 441 507 38,000  Level FlightAware Transoceanic
06:19AM 34.2960 154.0649 283° West 441 507 38,000  Level FlightAware Transoceanic
06:20AM 34.3212 153.9326 283° West 441 507 38,000  Level FlightAware Transoceanic
06:21AM 34.3463 153.8002 283° West 441 507 38,000  Level FlightAware Transoceanic
06:22AM 34.3713 153.6678 283° West 441 507 38,000  Level FlightAware Transoceanic
06:23AM 34.3961 153.5352 283° West 441 507 38,000  Level FlightAware Transoceanic
06:24AM 34.4207 153.4026 283° West 441 507 38,000  Level FlightAware Transoceanic
06:25AM 34.4453 153.2699 283° West 441 507 38,000  Level FlightAware Transoceanic
06:26AM 34.4696 153.1372 283° West 441 507 38,000  Level FlightAware Transoceanic
06:27AM 34.4939 153.0043 282° West 441 507 38,000  Level FlightAware Transoceanic
06:28AM 34.5179 152.8714 282° West 441 507 38,000  Level FlightAware Transoceanic
06:29AM 34.5419 152.7384 282° West 441 507 38,000  Level FlightAware Transoceanic
06:30AM 34.5657 152.6053 282° West 441 507 38,000  Level FlightAware Transoceanic
06:31AM 34.5894 152.4722 282° West 441 507 38,000  Level FlightAware Transoceanic
06:32AM 34.6129 152.3389 282° West 441 507 38,000  Level FlightAware Transoceanic
06:33AM 34.6362 152.2056 282° West 441 507 38,000  Level FlightAware Transoceanic
06:34AM 34.6595 152.0722 282° West 441 507 38,000  Level FlightAware Transoceanic
06:35AM 34.6825 151.9388 282° West 441 507 38,000  Level FlightAware Transoceanic
06:36AM 34.7055 151.8053 282° West 441 507 38,000  Level FlightAware Transoceanic
06:37AM 34.7282 151.6716 282° West 441 507 38,000  Level FlightAware Transoceanic
06:38AM 34.7509 151.5380 282° West 441 507 38,000  Level FlightAware Transoceanic
06:39AM 34.7734 151.4042 282° West 441 507 38,000  Level FlightAware Transoceanic
06:40AM 34.7957 151.2704 281° West 441 507 38,000  Level FlightAware Transoceanic
06:41AM 34.8179 151.1365 281° West 441 507 38,000  Level FlightAware Transoceanic
06:42AM 34.8400 151.0025 281° West 441 507 38,000  Level FlightAware Transoceanic
06:43AM 34.8619 150.8685 281° West 441 507 38,000  Level FlightAware Transoceanic
06:44AM 34.8837 150.7344 281° West 441 507 38,000  Level FlightAware Transoceanic
06:45AM 34.9053 150.6002 281° West 441 507 38,000  Level FlightAware Transoceanic
06:46AM 34.9267 150.4659 281° West 441 507 38,000  Level FlightAware Transoceanic
06:47AM 34.9481 150.3316 281° West 441 507 38,000  Level FlightAware Transoceanic
06:48AM 34.9692 150.1972 281° West 441 507 38,000  Level FlightAware Transoceanic
06:49AM 34.9902 150.0628 278° West 441 507 38,000  Level FlightAware Transoceanic
06:50AM 35.0078 149.9181 276° West  Level FlightAware Approximate
06:51AM 35.0194 149.7724 276° West  Level FlightAware Approximate
06:52AM 35.0309 149.6266 275° West  Level FlightAware Approximate
06:53AM 35.0422 149.4808 275° West  Level FlightAware Approximate
06:54AM 35.0533 149.3350 275° West  Level FlightAware Approximate
06:55AM 35.0642 149.1895 275° West  Level FlightAware Approximate
06:56AM 35.0749 149.0439 275° West  Level FlightAware Approximate
06:57AM 35.0855 148.8982 275° West  Level FlightAware Approximate
06:58AM 35.0959 148.7525 275° West  Level FlightAware Approximate
06:59AM 35.1061 148.6068 275° West  Level FlightAware Approximate
07:00AM 35.1161 148.4611 275° West  Level FlightAware Approximate
07:01AM 35.1260 148.3153 275° West  Level FlightAware Approximate
07:02AM 35.1357 148.1695 275° West  Level FlightAware Approximate
07:03AM 35.1452 148.0237 275° West  Level FlightAware Approximate
07:04AM 35.1546 147.8778 274° West  Level FlightAware Approximate
07:05AM 35.1637 147.7319 274° West  Level FlightAware Approximate
07:06AM 35.1727 147.5859 274° West  Level FlightAware Approximate
07:07AM 35.1815 147.4399 274° West  Level FlightAware Approximate
07:08AM 35.1902 147.2939 274° West  Level FlightAware Approximate
07:09AM 35.1987 147.1479 274° West  Level FlightAware Approximate
07:10AM 35.2070 147.0018 274° West  Level FlightAware Approximate
07:11AM 35.2151 146.8557 274° West  Level FlightAware Approximate
07:12AM 35.2230 146.7096 274° West  Level FlightAware Approximate
07:13AM 35.2308 146.5634 274° West  Level FlightAware Approximate
07:14AM 35.2384 146.4172 274° West  Level FlightAware Approximate
07:15AM 35.2458 146.2710 274° West  Level FlightAware Approximate
07:16AM 35.2530 146.1248 273° West  Level FlightAware Approximate
07:17AM 35.2601 145.9785 274° West  Level FlightAware Approximate
07:18AM 35.2679 145.8323 274° West  Level FlightAware Approximate
07:19AM 35.2756 145.6860 274° West  Level FlightAware Approximate
07:20AM 35.2831 145.5397 274° West  Level FlightAware Approximate
07:21AM 35.2904 145.3934 273° West  Level FlightAware Approximate
07:22AM 35.2962 145.2485 275° West  Level FlightAware Approximate
07:23AM 35.3056 145.1024 274° West  Level FlightAware Approximate
07:24AM 35.3148 144.9562 274° West  Level FlightAware Approximate
07:25AM 35.3238 144.8100 274° West  Level FlightAware Approximate
07:26AM 35.3327 144.6643 274° West  Level FlightAware Approximate
07:27AM 35.3413 144.5187 274° West  Level FlightAware Approximate
07:28AM 35.3498 144.3730 274° West  Level FlightAware Approximate
07:29AM 35.3581 144.2273 274° West  Level FlightAware Approximate
07:30AM 35.3666 144.0815 274° West  Level FlightAware Approximate
07:31AM 35.3750 143.9358 274° West  Level FlightAware Approximate
07:32AM 35.3833 143.7900 274° West  Level FlightAware Approximate
07:33AM 35.3911 143.6442 274° West  Level FlightAware Approximate
07:34AM 35.3988 143.4984 274° West  Level FlightAware Approximate
07:35AM 35.4063 143.3525 274° West  Level FlightAware Approximate
07:36AM 35.4137 143.2066 273° West  Level FlightAware Approximate
07:37AM 35.4208 143.0607 273° West  Level FlightAware Approximate
07:38AM 35.4278 142.9147 273° West  Level FlightAware Approximate
07:39AM 35.4346 142.7688 273° West  Level FlightAware Approximate
07:40AM 35.4412 142.6228 273° West  Level FlightAware Approximate
07:41AM 35.4477 142.4767 273° West  Level FlightAware Approximate
07:42AM 35.4540 142.3307 273° West  Level FlightAware Approximate
07:43AM 35.4601 142.1846 273° West  Level FlightAware Approximate
07:44AM 35.4660 142.0385 273° West  Level FlightAware Approximate
07:45AM 35.4718 141.8924 273° West  Level FlightAware Approximate
07:46AM 35.4773 141.7463 239° Southwest  Level FlightAware Approximate
07:47AM 35.4190 141.6296 275° West  Level FlightAware Approximate
07:48AM 35.4295 141.4839 274° West  Level FlightAware Approximate
07:49AM 35.4373 141.3380 275° West  Level FlightAware Approximate
07:50AM 35.4476 141.1923 274° West  Level FlightAware Approximate
07:51AM 35.4558 141.0465 275° West  Level FlightAware Approximate
07:52AM 35.4660 140.9007 278° West  Level FlightAware Approximate
07:53AM 35.4826 140.7559 276° West  Level FlightAware Approximate
07:54AM 35.4950 140.6104 272° West  Level FlightAware Approximate
07:55AM 35.5000 140.4644 276° West  Level FlightAware Approximate
07:56AM 35.5115 140.3193 276° West  Level FlightAware Approximate
07:57AM 35.5233 140.1740 275° West  Level FlightAware Approximate
07:58AM 35.5333 140.0284 270° West  Level FlightAware Approximate
07:59AM 35.5333 139.8820 280° West  Level FlightAware Approximate
08:00AM 35.5500 139.7667 78° East  Level FlightAware Approximate
08:01AM 35.5747 139.9099 97° East  Level Estimated
08:02AM 35.4654 140.9034 275° West  Level FlightAware Approximate
08:03AM 35.4754 140.7576 275° West  Level FlightAware Approximate
08:04AM 35.4854 140.6118 275° West  Level FlightAware Approximate
08:05AM 35.4951 140.4660 275° West  Level FlightAware Approximate
08:06AM 35.5047 140.3201 275° West  Level FlightAware Approximate
08:07AM 35.5141 140.1742 274° West  Level FlightAware Approximate
08:08AM 35.5233 140.0283 274° West  Level FlightAware Approximate
08:09AM 35.5324 139.8823 281° West  Level FlightAware Approximate
08:10AM 35.5500 139.7667 78° East  Level FlightAware Approximate
08:11AM 35.5747 139.9099 258° West  Level Estimated
08:12AM 35.5501 139.7673 78° East  Level Estimated
08:13AM 35.5747 139.9099 258° West  Level Estimated
08:14AM 35.5500 139.7667 78° East  Level FlightAware Approximate
08:15AM 35.5746 139.9093 258° West  Level Estimated
08:16AM 35.5500 139.7667 78° East  Level FlightAware Approximate
08:17AM 35.5747 139.9099 258° West  Level Estimated
08:18AM 35.5500 139.7667 78° East  Level FlightAware Approximate
08:19AM 35.5746 139.9093 258° West  Level Estimated
08:20AM 35.5500 139.7667 78° East  Level FlightAware Approximate
08:21AM 35.5746 139.9093 258° West  Level Estimated
08:22AM 35.5500 139.7667 78° East  Level FlightAware Approximate
08:23AM 35.5746 139.9093 258° West  Level Estimated
08:24AM 35.5500 139.7667 78° East  Level FlightAware Approximate
08:25AM 35.5746 139.9093 78° East  Level Estimated